Time;durP1;ratioP1;P1;durP2;ratioP2;P2;SDS_P1;SDS_P2;PMS_P1;PMS_P2;Temp;Humidity;BMP_temperature;BMP_pressure;BME280_temperature;BME280_humidity;BME280_pressure;Samples;Min_cycle;Max_cycle;Signal;HPM_P1;HPM_P2
2023/07/07 00:01:57;;;;;;;7.20;3.88;;;;;;;-142.57;100.00;115900.28;6280798;22;20011;-85
2023/07/07 00:04:23;;;;;;;6.40;3.92;;;;;;;-142.57;100.00;115900.28;6281974;22;20007;-87
2023/07/07 00:06:49;;;;;;;8.25;4.13;;;;;;;-142.57;100.00;115900.28;6281988;22;20006;-86
2023/07/07 00:09:16;;;;;;;13.38;4.40;;;;;;;-142.57;100.00;115900.28;6282848;22;20039;-85
2023/07/07 00:11:41;;;;;;;8.88;4.18;;;;;;;-142.57;100.00;115900.28;6283110;22;20015;-87
2023/07/07 00:14:08;;;;;;;5.53;3.47;;;;;;;-142.57;100.00;115900.28;6283580;22;20011;-86
2023/07/07 00:16:37;;;;;;;11.43;4.28;;;;;;;-142.57;100.00;115900.28;6283150;22;20387;-86
2023/07/07 00:19:06;;;;;;;10.30;4.43;;;;;;;-142.57;100.00;115900.28;6283927;22;20035;-85
2023/07/07 00:21:31;;;;;;;7.97;4.57;;;;;;;-142.57;100.00;115900.28;6282165;22;20065;-84
2023/07/07 00:23:57;;;;;;;9.90;4.50;;;;;;;-142.57;100.00;115900.28;6254111;22;20020;-85
2023/07/07 00:26:25;;;;;;;8.30;4.30;;;;;;;-142.57;100.00;115900.28;6278120;22;20016;-85
2023/07/07 00:28:51;;;;;;;6.07;4.20;;;;;;;-142.57;100.00;115900.28;6278253;22;20019;-84
2023/07/07 00:31:18;;;;;;;8.25;4.30;;;;;;;-142.57;100.00;115900.28;6251493;22;20091;-86
2023/07/07 00:33:44;;;;;;;7.32;4.30;;;;;;;-142.57;100.00;115900.28;6279116;22;20007;-84
2023/07/07 00:36:11;;;;;;;6.93;4.07;;;;;;;-142.57;100.00;115900.28;6277833;22;20011;-87
2023/07/07 00:38:36;;;;;;;9.35;4.10;;;;;;;-142.57;100.00;115900.28;6277678;22;20118;-85
2023/07/07 00:41:05;;;;;;;8.23;4.38;;;;;;;-142.57;100.00;115900.28;6277370;22;20011;-86
2023/07/07 00:43:31;;;;;;;5.93;4.03;;;;;;;-142.57;100.00;115900.28;6250388;22;20015;-85
2023/07/07 00:45:58;;;;;;;6.82;4.20;;;;;;;-142.57;100.00;115900.28;6277023;22;20015;-84
2023/07/07 00:48:27;;;;;;;8.88;4.88;;;;;;;-142.57;100.00;115900.28;6276923;22;20016;-85
2023/07/07 00:51:21;;;;;;;9.65;5.53;;;;;;;-142.57;100.00;115900.28;6277530;22;20320;-85
2023/07/07 00:53:50;;;;;;;8.45;5.78;;;;;;;-142.57;100.00;115900.28;6262821;22;20016;-83
2023/07/07 00:56:30;;;;;;;11.65;6.78;;;;;;;-142.57;100.00;115900.28;6277614;22;20007;-85
2023/07/07 00:59:01;;;;;;;12.30;6.57;;;;;;;-142.57;100.00;115900.28;6277430;22;20443;-87
2023/07/07 01:01:27;;;;;;;11.80;7.28;;;;;;;-142.57;100.00;115900.28;6277320;22;20403;-86
2023/07/07 01:03:57;;;;;;;12.75;7.25;;;;;;;-142.57;100.00;115900.28;6250133;22;20011;-85
2023/07/07 01:06:27;;;;;;;15.13;7.38;;;;;;;-142.57;100.00;115900.28;6274978;22;20022;-83
2023/07/07 01:09:06;;;;;;;11.52;6.78;;;;;;;-142.57;100.00;115900.28;6271424;22;20087;-84
2023/07/07 01:11:33;;;;;;;14.65;7.25;;;;;;;-142.57;100.00;115900.28;6276131;22;20014;-88
2023/07/07 01:14:03;;;;;;;14.32;7.55;;;;;;;-142.57;100.00;115900.28;6284706;22;20030;-86
2023/07/07 01:16:31;;;;;;;12.77;7.55;;;;;;;-142.57;100.00;115900.28;6283419;22;20331;-86
2023/07/07 01:19:56;;;;;;;9.45;7.10;;;;;;;-142.57;100.00;115900.28;6251560;22;20043;-88
2023/07/07 01:22:36;;;;;;;12.15;7.57;;;;;;;-142.57;100.00;115900.28;6278735;22;20391;-87
2023/07/07 01:25:29;;;;;;;10.95;7.70;;;;;;;-142.57;100.00;115900.28;6251458;22;20016;-87
2023/07/07 01:27:55;;;;;;;;;;;;;;;-142.57;100.00;115900.28;6278970;22;20015;-86
2023/07/07 01:30:27;;;;;;;15.48;7.97;;;;;;;-142.57;100.00;115900.28;6278337;22;19907;-86
2023/07/07 01:32:52;;;;;;;10.95;5.57;;;;;;;-142.57;100.00;115900.28;6251002;22;20016;-87
2023/07/07 01:35:21;;;;;;;16.83;7.93;;;;;;;-142.57;100.00;115900.28;6251064;22;20330;-87
2023/07/07 01:38:05;;;;;;;15.60;7.90;;;;;;;-142.57;100.00;115900.28;6250323;22;20015;-87
2023/07/07 01:40:42;;;;;;;18.08;8.23;;;;;;;-142.57;100.00;115900.28;6277626;22;20050;-88
2023/07/07 01:43:31;;;;;;;11.27;7.28;;;;;;;-142.57;100.00;115900.28;6278668;22;20435;-87
2023/07/07 01:46:17;;;;;;;15.80;7.85;;;;;;;-142.57;100.00;115900.28;6277993;22;20414;-87
2023/07/07 01:48:56;;;;;;;11.02;7.32;;;;;;;-142.57;100.00;115900.28;6276975;22;20012;-86
2023/07/07 01:51:27;;;;;;;10.95;7.57;;;;;;;-142.57;100.00;115900.28;6276249;22;20070;-85
2023/07/07 01:53:55;;;;;;;10.35;6.85;;;;;;;-142.57;100.00;115900.28;6276496;22;20496;-86
2023/07/07 01:56:25;;;;;;;10.65;7.10;;;;;;;-142.57;100.00;115900.28;6276986;22;20000;-86
2023/07/07 01:58:51;;;;;;;12.52;7.20;;;;;;;-142.57;100.00;115900.28;6276915;22;20089;-87
2023/07/07 02:01:18;;;;;;;14.70;6.53;;;;;;;-142.57;100.00;115900.28;6276607;22;20454;-86
2023/07/07 02:03:44;;;;;;;11.45;7.07;;;;;;;-142.57;100.00;115900.28;6276645;22;20007;-85
2023/07/07 02:06:09;;;;;;;12.32;5.95;;;;;;;-142.57;100.00;115900.28;6249546;22;20037;-85
2023/07/07 02:08:36;;;;;;;9.65;6.43;;;;;;;-142.57;100.00;115900.28;6276321;22;20000;-86
2023/07/07 02:11:03;;;;;;;8.95;5.32;;;;;;;-142.57;100.00;115900.28;6224087;22;20012;-86
2023/07/07 02:13:28;;;;;;;8.85;5.15;;;;;;;-142.57;100.00;115900.28;6276488;22;20423;-86
2023/07/07 02:15:54;;;;;;;8.50;5.10;;;;;;;-142.57;100.00;115900.28;6276425;22;20429;-88
2023/07/07 02:18:20;;;;;;;8.77;4.60;;;;;;;-142.57;100.00;115900.28;6249210;22;20016;-86
2023/07/07 02:20:45;;;;;;;7.53;4.50;;;;;;;-142.57;100.00;115900.28;6276234;22;20018;-87
2023/07/07 02:23:11;;;;;;;7.15;4.53;;;;;;;-142.57;100.00;115900.28;6248972;22;20015;-85
2023/07/07 02:25:37;;;;;;;7.72;4.63;;;;;;;-142.57;100.00;115900.28;6275975;22;20335;-87
2023/07/07 02:28:03;;;;;;;8.00;4.50;;;;;;;-142.57;100.00;115900.28;6276269;22;20189;-87
2023/07/07 02:30:29;;;;;;;7.97;4.63;;;;;;;-142.57;100.00;115900.28;6248890;22;20012;-86
2023/07/07 02:32:55;;;;;;;5.85;4.40;;;;;;;-142.57;100.00;115900.28;6276471;22;20003;-86
2023/07/07 02:35:23;;;;;;;7.10;4.65;;;;;;;-142.57;100.00;115900.28;6282303;22;20008;-85
2023/07/07 02:37:49;;;;;;;8.95;4.30;;;;;;;-142.57;100.00;115900.28;6281389;22;20015;-87
2023/07/07 02:40:15;;;;;;;5.45;3.83;;;;;;;-142.57;100.00;115900.28;6276158;22;20449;-88
2023/07/07 02:42:41;;;;;;;6.32;4.10;;;;;;;-142.57;100.00;115900.28;6276320;22;20015;-86
2023/07/07 02:45:07;;;;;;;8.95;4.63;;;;;;;-142.57;100.00;115900.28;6275665;22;19999;-86
2023/07/07 02:47:33;;;;;;;7.55;4.40;;;;;;;-142.57;100.00;115900.28;6276177;22;20500;-87
2023/07/07 02:49:58;;;;;;;6.88;3.85;;;;;;;-142.57;100.00;115900.28;6275821;22;20039;-86
2023/07/07 02:52:24;;;;;;;8.32;4.35;;;;;;;-142.57;100.00;115900.28;6248773;22;20007;-86
2023/07/07 02:54:49;;;;;;;8.13;4.13;;;;;;;-142.57;100.00;115900.28;6248761;22;20012;-86
2023/07/07 02:57:15;;;;;;;8.77;4.13;;;;;;;-142.57;100.00;115900.28;6248935;22;20073;-86
2023/07/07 02:59:41;;;;;;;8.63;4.32;;;;;;;-142.57;100.00;115900.28;6275931;22;20117;-86
2023/07/07 03:02:06;;;;;;;7.55;4.55;;;;;;;-142.57;100.00;115900.28;6247399;22;20094;-85
2023/07/07 03:04:32;;;;;;;5.80;3.80;;;;;;;-142.57;100.00;115900.28;6248980;22;20016;-86
2023/07/07 03:06:58;;;;;;;8.20;3.67;;;;;;;-142.57;100.00;115900.28;6275985;22;20008;-88
2023/07/07 03:09:24;;;;;;;11.90;4.25;;;;;;;-142.57;100.00;115900.28;6248690;22;20082;-86
2023/07/07 03:11:50;;;;;;;11.52;3.80;;;;;;;-142.57;100.00;115900.28;6248464;22;20372;-85
2023/07/07 03:14:21;;;;;;;8.63;3.78;;;;;;;-142.57;100.00;115900.28;6254471;22;20008;-86
2023/07/07 03:16:51;;;;;;;12.23;4.65;;;;;;;-142.57;100.00;115900.28;6283375;22;20014;-86
2023/07/07 03:19:20;;;;;;;6.95;4.07;;;;;;;-142.57;100.00;115900.28;6258485;22;20012;-86
2023/07/07 03:21:55;;;;;;;6.47;3.70;;;;;;;-142.57;100.00;115900.28;6248691;22;20095;-87
2023/07/07 03:24:29;;;;;;;7.07;4.05;;;;;;;-142.57;100.00;115900.28;6249463;22;20090;-87
2023/07/07 03:26:55;;;;;;;9.50;4.10;;;;;;;-142.57;100.00;115900.28;6248834;22;20019;-86
2023/07/07 03:29:25;;;;;;;10.07;3.47;;;;;;;-142.57;100.00;115900.28;6248943;22;19999;-85
2023/07/07 03:31:52;;;;;;;7.53;4.50;;;;;;;-142.57;100.00;115900.28;6248721;22;20039;-86
2023/07/07 03:34:19;;;;;;;9.05;4.40;;;;;;;-142.57;100.00;115900.28;6248995;22;20008;-85
2023/07/07 03:36:46;;;;;;;6.90;4.50;;;;;;;-142.57;100.00;115900.28;6248432;22;20004;-86
2023/07/07 03:39:14;;;;;;;10.55;4.68;;;;;;;-142.57;100.00;115900.28;6223438;22;20342;-85
2023/07/07 03:41:42;;;;;;;7.25;4.55;;;;;;;-142.57;100.00;115900.28;6248674;22;20342;-86
2023/07/07 03:44:09;;;;;;;10.15;4.93;;;;;;;-142.57;100.00;115900.28;6275873;22;20086;-85
2023/07/07 03:46:36;;;;;;;8.07;4.63;;;;;;;-142.57;100.00;115900.28;6248468;22;20012;-85
2023/07/07 03:49:02;;;;;;;8.13;4.68;;;;;;;-142.57;100.00;115900.28;6248323;22;20008;-87
2023/07/07 03:51:34;;;;;;;10.52;4.75;;;;;;;-142.57;100.00;115900.28;6248640;22;20338;-87
2023/07/07 03:54:04;;;;;;;10.32;5.00;;;;;;;-142.57;100.00;115900.28;6224155;22;20004;-86
2023/07/07 03:56:30;;;;;;;8.65;5.10;;;;;;;-142.57;100.00;115900.28;6251965;22;20004;-86
2023/07/07 03:58:55;;;;;;;13.52;5.00;;;;;;;-142.57;100.00;115900.28;6262071;22;20000;-85
2023/07/07 04:01:21;;;;;;;10.90;4.93;;;;;;;-142.57;100.00;115900.28;6276935;22;20015;-87
2023/07/07 04:03:47;;;;;;;8.80;4.40;;;;;;;-142.57;100.00;115900.28;6278611;22;20012;-87
2023/07/07 04:06:14;;;;;;;10.55;4.40;;;;;;;-142.57;100.00;115900.28;6250204;22;20083;-88
2023/07/07 04:08:40;;;;;;;8.45;4.25;;;;;;;-142.57;100.00;115900.28;6277143;22;20028;-86
2023/07/07 04:11:17;;;;;;;8.40;4.35;;;;;;;-142.57;100.00;115900.28;6250621;22;20004;-87
2023/07/07 04:13:45;;;;;;;10.02;4.40;;;;;;;-142.57;100.00;115900.28;6277209;22;20011;-87
2023/07/07 04:16:13;;;;;;;17.55;4.93;;;;;;;-142.57;100.00;115900.28;6277188;22;20447;-86
2023/07/07 04:18:41;;;;;;;7.70;4.85;;;;;;;-142.57;100.00;115900.28;6250915;22;20132;-88
2023/07/07 04:21:09;;;;;;;11.38;5.13;;;;;;;-142.57;100.00;115900.28;6250903;22;20015;-87
2023/07/07 04:23:39;;;;;;;10.23;4.85;;;;;;;-142.57;100.00;115900.28;6277797;22;20000;-88
2023/07/07 04:26:06;;;;;;;10.85;4.57;;;;;;;-142.57;100.00;115900.28;6279243;22;20469;-88
2023/07/07 04:28:35;;;;;;;9.15;4.70;;;;;;;-142.57;100.00;115900.28;6278026;22;20095;-87
2023/07/07 04:31:03;;;;;;;10.15;5.20;;;;;;;-142.57;100.00;115900.28;6250671;22;20014;-87
2023/07/07 04:33:30;;;;;;;10.48;4.97;;;;;;;-142.57;100.00;115900.28;6277249;22;20011;-88
2023/07/07 04:35:58;;;;;;;7.63;4.97;;;;;;;-142.57;100.00;115900.28;6277828;22;20006;-87
2023/07/07 04:38:31;;;;;;;6.70;5.03;;;;;;;-142.57;100.00;115900.28;6277910;22;20008;-88
2023/07/07 04:41:14;;;;;;;8.95;5.20;;;;;;;-142.57;100.00;115900.28;6277599;22;20015;-88
2023/07/07 04:43:42;;;;;;;11.77;5.20;;;;;;;-142.57;100.00;115900.28;6278598;22;20015;-88
2023/07/07 04:46:10;;;;;;;10.48;4.90;;;;;;;-142.57;100.00;115900.28;6252866;22;20035;-86
2023/07/07 04:48:35;;;;;;;11.73;5.43;;;;;;;-142.57;100.00;115900.28;6251642;22;20495;-87
2023/07/07 04:51:05;;;;;;;9.07;4.72;;;;;;;-142.57;100.00;115900.28;6250940;22;20043;-88
2023/07/07 04:53:30;;;;;;;10.20;5.38;;;;;;;-142.57;100.00;115900.28;6278395;22;20032;-90
2023/07/07 04:55:57;;;;;;;10.52;5.10;;;;;;;-142.57;100.00;115900.28;6279460;22;20012;-90
2023/07/07 04:58:29;;;;;;;11.82;5.53;;;;;;;-142.57;100.00;115900.28;6278745;22;20012;-88
2023/07/07 05:01:12;;;;;;;13.65;5.00;;;;;;;-142.57;100.00;115900.28;6228712;22;20015;-90
2023/07/07 05:03:42;;;;;;;9.50;4.90;;;;;;;-142.57;100.00;115900.28;6262119;22;20008;-89
2023/07/07 05:06:10;;;;;;;11.15;4.63;;;;;;;-142.57;100.00;115900.28;6290775;22;20008;-89
2023/07/07 05:08:39;;;;;;;15.57;5.32;;;;;;;-142.57;100.00;115900.28;6290550;22;20253;-91
2023/07/07 05:11:06;;;;;;;12.27;5.05;;;;;;;-142.57;100.00;115900.28;6289042;22;20038;-89
2023/07/07 05:13:35;;;;;;;12.38;5.13;;;;;;;-142.57;100.00;115900.28;6290903;22;20008;-90
2023/07/07 05:16:12;;;;;;;11.32;5.03;;;;;;;-142.57;100.00;115900.28;6286738;22;20003;-89
2023/07/07 05:18:39;;;;;;;11.02;5.00;;;;;;;-142.57;100.00;115900.28;6291860;22;20091;-87
2023/07/07 05:21:07;;;;;;;7.20;4.80;;;;;;;-142.57;100.00;115900.28;6288091;22;20049;-88
2023/07/07 05:23:34;;;;;;;16.90;4.88;;;;;;;-142.57;100.00;115900.28;6259627;22;20519;-91
2023/07/07 05:26:00;;;;;;;20.00;5.57;;;;;;;-142.57;100.00;115900.28;6233589;22;19999;-87
2023/07/07 05:28:26;;;;;;;12.48;4.82;;;;;;;-142.57;100.00;115900.28;6282961;22;20007;-86
2023/07/07 05:30:52;;;;;;;11.32;5.05;;;;;;;-142.57;100.00;115900.28;6283247;22;20000;-87
2023/07/07 05:33:17;;;;;;;11.88;5.15;;;;;;;-142.57;100.00;115900.28;6258508;22;20015;-87
2023/07/07 05:35:48;;;;;;;9.73;5.13;;;;;;;-142.57;100.00;115900.28;6280396;22;20011;-88
2023/07/07 05:38:19;;;;;;;8.38;4.75;;;;;;;-142.57;100.00;115900.28;6253407;22;20442;-86
2023/07/07 05:40:47;;;;;;;14.00;4.82;;;;;;;-142.57;100.00;115900.28;6279931;22;20043;-90
2023/07/07 05:43:14;;;;;;;7.53;4.82;;;;;;;-142.57;100.00;115900.28;6253186;22;20019;-84
2023/07/07 05:45:41;;;;;;;9.18;4.78;;;;;;;-142.57;100.00;115900.28;6278916;22;20043;-85
2023/07/07 05:48:06;;;;;;;16.90;5.80;;;;;;;-142.57;100.00;115900.28;6277285;22;20419;-84
2023/07/07 05:50:33;;;;;;;11.48;5.60;;;;;;;-142.57;100.00;115900.28;6276766;22;20019;-85
2023/07/07 05:53:01;;;;;;;10.73;5.05;;;;;;;-142.57;100.00;115900.28;6277162;22;20429;-87
2023/07/07 05:55:33;;;;;;;10.82;5.55;;;;;;;-142.57;100.00;115900.28;6277272;22;20087;-85
2023/07/07 05:58:03;;;;;;;7.13;4.80;;;;;;;-142.57;100.00;115900.28;6277484;22;20086;-85
2023/07/07 06:00:31;;;;;;;10.23;4.93;;;;;;;-142.57;100.00;115900.28;6277110;22;20007;-86
2023/07/07 06:02:58;;;;;;;7.88;5.50;;;;;;;-142.57;100.00;115900.28;6249580;22;20031;-83
2023/07/07 06:05:24;;;;;;;11.43;5.85;;;;;;;-142.57;100.00;115900.28;6277464;22;20003;-84
2023/07/07 06:07:51;;;;;;;7.75;4.93;;;;;;;-142.57;100.00;115900.28;6277058;22;20523;-85
2023/07/07 06:10:16;;;;;;;12.65;5.60;;;;;;;-142.57;100.00;115900.28;6276629;22;20407;-86
2023/07/07 06:12:42;;;;;;;16.33;5.80;;;;;;;-142.57;100.00;115900.28;6249291;22;20030;-84
2023/07/07 06:15:08;;;;;;;11.77;5.82;;;;;;;-142.57;100.00;115900.28;6275995;22;20035;-83
2023/07/07 06:17:34;;;;;;;14.20;5.60;;;;;;;-142.57;99.74;115900.28;6277214;22;20007;-85
2023/07/07 06:20:00;;;;;;;11.85;5.63;;;;;;;-142.57;97.33;115900.28;6276785;22;20350;-85
2023/07/07 06:22:26;;;;;;;13.32;5.00;;;;;;;-142.57;96.16;115900.28;6276490;22;20011;-83
2023/07/07 06:24:52;;;;;;;8.55;4.40;;;;;;;-142.57;94.82;115900.28;6276499;22;20457;-84
2023/07/07 06:27:18;;;;;;;12.93;5.72;;;;;;;-142.57;89.64;115900.28;6276782;22;20014;-82
2023/07/07 06:29:44;;;;;;;17.95;5.20;;;;;;;-142.57;86.11;115900.28;6276429;22;20034;-87
2023/07/07 06:32:10;;;;;;;9.73;4.30;;;;;;;-142.57;83.11;115900.28;6276531;22;20435;-83
2023/07/07 06:34:39;;;;;;;10.77;4.13;;;;;;;-142.57;80.79;115900.28;6275694;22;20026;-86
2023/07/07 06:37:05;;;;;;;14.23;4.68;;;;;;;-142.57;77.44;115900.28;6275019;22;20008;-85
2023/07/07 06:39:30;;;;;;;8.82;4.45;;;;;;;-142.57;77.29;115900.28;6276135;22;20085;-85
2023/07/07 06:41:56;;;;;;;13.60;5.43;;;;;;;-142.57;75.84;115900.28;6250905;22;20419;-85
2023/07/07 06:44:24;;;;;;;9.15;5.63;;;;;;;-142.57;73.55;115900.28;6249430;22;20011;-85
2023/07/07 06:46:49;;;;;;;15.40;6.00;;;;;;;-142.57;70.75;115900.28;6276984;22;20360;-84
2023/07/07 06:49:15;;;;;;;9.48;4.88;;;;;;;-142.57;68.36;115900.28;6249346;22;20011;-84
2023/07/07 06:51:40;;;;;;;7.85;5.00;;;;;;;-142.57;68.87;115900.28;6250380;22;20012;-85
2023/07/07 06:54:09;;;;;;;10.48;5.50;;;;;;;-142.57;66.30;115900.28;6276925;22;20008;-92
2023/07/07 06:56:35;;;;;;;11.23;4.22;;;;;;;-142.57;56.81;115900.28;6251933;22;20014;-88
2023/07/07 06:59:00;;;;;;;9.85;6.00;;;;;;;-142.57;59.75;115900.28;6278705;22;20012;-88
2023/07/07 07:01:25;;;;;;;12.05;5.80;;;;;;;-142.57;61.89;115900.28;6278787;22;20053;-85
2023/07/07 07:03:51;;;;;;;12.25;5.93;;;;;;;-142.57;55.99;115900.28;6277361;22;20109;-87
2023/07/07 07:06:17;;;;;;;13.20;6.22;;;;;;;-142.57;62.70;115900.28;6277418;22;20004;-86
2023/07/07 07:08:42;;;;;;;12.50;5.93;;;;;;;-142.57;63.60;115900.28;6277522;22;20008;-87
2023/07/07 07:11:07;;;;;;;18.05;6.93;;;;;;;-142.57;61.99;115900.28;6276587;22;20366;-86
2023/07/07 07:13:33;;;;;;;14.32;6.97;;;;;;;-142.57;61.18;115900.28;6276972;22;20087;-87
2023/07/07 07:15:59;;;;;;;15.25;5.82;;;;;;;-142.57;56.50;115900.28;6250787;22;20016;-84
2023/07/07 07:18:25;;;;;;;19.25;5.88;;;;;;;-142.57;57.78;115900.28;6280280;22;20035;-89
2023/07/07 07:20:54;;;;;;;9.80;5.55;;;;;;;-142.57;54.68;115900.28;6282655;22;20099;-87
2023/07/07 07:23:20;;;;;;;13.45;6.53;;;;;;;-142.57;55.88;115900.28;6286371;22;20462;-84
2023/07/07 07:25:48;;;;;;;12.98;6.30;;;;;;;-142.57;54.23;115900.28;6268864;22;20038;-84
2023/07/07 07:28:15;;;;;;;13.02;7.50;;;;;;;-142.57;50.43;115900.28;6289658;22;20008;-85
2023/07/07 07:30:41;;;;;;;18.00;7.05;;;;;;;-142.57;52.42;115900.28;6281612;22;20027;-86
2023/07/07 07:33:15;;;;;;;11.32;6.80;;;;;;;-142.57;51.66;115900.28;6276319;22;20008;-85
2023/07/07 07:35:43;;;;;;;16.02;7.38;;;;;;;-142.57;50.02;115900.28;6279685;22;20438;-89
2023/07/07 07:38:15;;;;;;;20.27;8.50;;;;;;;-142.57;52.01;115900.28;6279273;22;20004;-85
2023/07/07 07:40:41;;;;;;;16.95;7.45;;;;;;;-142.57;54.61;115900.28;6278460;22;20020;-82
2023/07/07 07:43:06;;;;;;;18.75;7.80;;;;;;;-142.57;53.20;115900.28;6278190;22;20018;-86
2023/07/07 07:45:32;;;;;;;15.18;6.00;;;;;;;-142.57;50.83;115900.28;6251441;22;20061;-87
2023/07/07 07:47:59;;;;;;;19.52;7.03;;;;;;;-142.57;49.82;115900.28;6279154;22;20018;-86
2023/07/07 07:50:24;;;;;;;13.50;7.45;;;;;;;-142.57;48.78;115900.28;6278240;22;20012;-85
2023/07/07 07:52:50;;;;;;;16.25;6.32;;;;;;;-142.57;49.46;115900.28;6279417;22;20015;-86
2023/07/07 07:55:16;;;;;;;17.40;6.60;;;;;;;-142.57;47.12;115900.28;6280996;22;20030;-86
2023/07/07 07:57:42;;;;;;;11.80;6.32;;;;;;;-142.57;46.82;115900.28;6281471;22;20338;-89
2023/07/07 08:00:08;;;;;;;17.13;7.43;;;;;;;-142.57;49.53;115900.28;6282341;22;20007;-86
2023/07/07 08:02:38;;;;;;;13.88;6.43;;;;;;;-142.57;47.31;115900.28;6279767;22;20019;-87
2023/07/07 08:05:05;;;;;;;10.80;5.90;;;;;;;-142.57;46.84;115900.28;6249761;22;20077;-86
2023/07/07 08:07:31;;;;;;;14.50;7.40;;;;;;;-142.57;48.80;115900.28;6272033;22;20004;-83
2023/07/07 08:09:57;;;;;;;11.25;6.80;;;;;;;-142.57;45.71;115900.28;6276472;22;20018;-86
2023/07/07 08:12:23;;;;;;;13.48;7.05;;;;;;;-142.57;48.73;115900.28;6250213;22;20012;-83
2023/07/07 08:14:48;;;;;;;14.52;7.32;;;;;;;-142.57;49.30;115900.28;6276770;22;20078;-87
2023/07/07 08:17:15;;;;;;;10.02;6.00;;;;;;;-142.57;47.30;115900.28;6277446;22;20442;-84
2023/07/07 08:19:44;;;;;;;11.82;7.18;;;;;;;-142.57;47.00;115900.28;6278540;22;20004;-81
2023/07/07 08:22:15;;;;;;;10.98;5.68;;;;;;;-142.57;48.04;115900.28;6280180;22;20090;-84
2023/07/07 08:24:46;;;;;;;9.65;5.38;;;;;;;-142.57;45.32;115900.28;6279002;22;20081;-82
2023/07/07 08:27:13;;;;;;;13.30;5.35;;;;;;;-142.57;46.62;115900.28;6276285;22;20011;-85
2023/07/07 08:29:40;;;;;;;12.02;5.10;;;;;;;-142.57;46.98;115900.28;6278489;22;20339;-88
2023/07/07 08:32:07;;;;;;;12.13;5.78;;;;;;;-142.57;45.48;115900.28;6278953;22;20360;-84
2023/07/07 08:34:33;;;;;;;9.20;5.32;;;;;;;-142.57;45.29;115900.28;6278411;22;20010;-89
2023/07/07 08:37:01;;;;;;;12.10;6.15;;;;;;;-142.57;44.65;115900.28;6277634;22;20015;-85
2023/07/07 08:39:29;;;;;;;9.60;5.88;;;;;;;-142.57;43.95;115900.28;6278336;22;20108;-87
2023/07/07 08:42:21;;;;;;;10.85;5.90;;;;;;;-142.57;47.25;115900.28;6277688;22;20008;-86
2023/07/07 08:44:46;;;;;;;;;;;;;;;-142.57;43.85;115900.28;6235759;22;20016;-88
2023/07/07 08:47:57;;;;;;;11.40;4.88;;;;;;;-142.57;45.07;115900.28;6278896;22;19911;-84
2023/07/07 08:50:28;;;;;;;11.75;5.80;;;;;;;-142.57;45.49;115900.28;6271159;22;20505;-85
2023/07/07 08:53:08;;;;;;;10.43;6.15;;;;;;;-142.57;44.36;115900.28;6280608;22;20008;-85
2023/07/07 08:55:46;;;;;;;11.15;6.63;;;;;;;-142.57;46.12;115900.28;6285566;22;20015;-84
2023/07/07 08:58:22;;;;;;;10.98;6.38;;;;;;;-142.57;47.76;115900.28;6278732;22;20008;-85
2023/07/07 09:01:18;;;;;;;13.68;7.00;;;;;;;-142.57;45.63;115900.28;6278013;22;20038;-85
2023/07/07 09:04:20;;;;;;;14.20;6.65;;;;;;;-142.57;45.99;115900.28;6277261;22;20011;-84
2023/07/07 09:06:46;;;;;;;12.00;6.20;;;;;;;-142.57;47.64;115900.28;6276955;22;20019;-85
2023/07/07 09:09:23;;;;;;;14.48;7.25;;;;;;;-142.57;45.67;115900.28;6262519;22;20007;-87
2023/07/07 09:11:58;;;;;;;10.25;5.90;;;;;;;-142.57;45.08;115900.28;6240103;22;20011;-86
2023/07/07 09:14:26;;;;;;;11.68;5.50;;;;;;;-142.57;46.20;115900.28;6292435;22;20015;-89
2023/07/07 09:16:55;;;;;;;12.13;6.22;;;;;;;-142.57;46.26;115900.28;6292716;22;20015;-85
2023/07/07 09:19:29;;;;;;;9.77;5.22;;;;;;;-142.57;44.52;115900.28;6266137;22;20012;-87
2023/07/07 09:21:59;;;;;;;11.18;5.47;;;;;;;-142.57;41.94;115900.28;6262722;22;20012;-86
2023/07/07 09:24:36;;;;;;;11.60;5.20;;;;;;;-142.57;42.65;115900.28;6291751;22;20095;-86
2023/07/07 09:27:13;;;;;;;8.77;5.63;;;;;;;-142.57;42.44;115900.28;6293579;22;20011;-85
2023/07/07 09:29:39;;;;;;;17.75;6.07;;;;;;;-142.57;43.31;115900.28;6290853;22;20027;-87
2023/07/07 09:32:05;;;;;;;10.30;5.93;;;;;;;-142.57;43.39;115900.28;6290620;22;20003;-85
2023/07/07 09:34:32;;;;;;;13.00;5.60;;;;;;;-142.57;44.33;115900.28;6288978;22;20014;-84
2023/07/07 09:36:58;;;;;;;12.55;5.57;;;;;;;-142.57;43.59;115900.28;6287115;22;20008;-86
2023/07/07 09:39:55;;;;;;;9.98;5.40;;;;;;;-142.57;43.26;115900.28;6282578;22;20316;-85
2023/07/07 09:43:02;;;;;;;6.93;3.85;;;;;;;-142.57;41.56;115900.28;6254243;22;20047;-84
2023/07/07 09:45:27;;;;;;;7.60;3.90;;;;;;;-142.57;42.52;115900.28;6224734;22;20015;-85
2023/07/07 09:48:13;;;;;;;9.13;3.92;;;;;;;-142.57;40.41;115900.28;6283101;22;20015;-83
2023/07/07 09:50:43;;;;;;;10.38;3.60;;;;;;;-142.57;40.48;115900.28;6282928;22;20007;-84
2023/07/07 09:53:24;;;;;;;10.45;3.97;;;;;;;-142.57;41.46;115900.28;6282494;22;20012;-84
2023/07/07 09:55:51;;;;;;;9.98;3.35;;;;;;;-142.57;42.51;115900.28;6283396;22;20007;-85
2023/07/07 09:58:32;;;;;;;9.65;4.20;;;;;;;-142.57;42.30;115900.28;6255507;22;20003;-86
2023/07/07 10:01:02;;;;;;;6.32;4.22;;;;;;;-142.57;43.58;115900.28;6254689;22;20049;-85
2023/07/07 10:03:37;;;;;;;8.07;4.18;;;;;;;-142.57;43.32;115900.28;6283013;22;20103;-85
2023/07/07 10:06:27;;;;;;;6.90;4.10;;;;;;;-142.57;42.42;115900.28;6283036;22;20091;-85
2023/07/07 10:08:53;;;;;;;7.75;3.85;;;;;;;-142.57;41.22;115900.28;6282481;22;20122;-86
2023/07/07 10:11:43;;;;;;;8.25;3.50;;;;;;;-142.57;40.16;115900.28;6281609;22;20366;-87
2023/07/07 10:14:15;;;;;;;10.13;3.03;;;;;;;-142.57;38.77;115900.28;6231797;22;20018;-87
2023/07/07 10:17:22;;;;;;;6.03;3.15;;;;;;;-142.57;37.55;115900.28;6285102;22;20019;-85
2023/07/07 10:19:55;;;;;;;12.70;3.88;;;;;;;-142.57;39.58;115900.28;6274789;22;20026;-85
2023/07/07 10:22:21;;;;;;;9.43;3.65;;;;;;;-142.57;39.89;115900.28;6253598;22;20098;-86
2023/07/07 10:24:47;;;;;;;13.80;3.70;;;;;;;-142.57;39.30;115900.28;6280518;22;20047;-87
2023/07/07 10:27:17;;;;;;;12.23;2.80;;;;;;;-142.57;39.65;115900.28;6282335;22;20050;-88
2023/07/07 10:29:44;;;;;;;12.55;2.70;;;;;;;-142.57;38.49;115900.28;6256664;22;20015;-86
2023/07/07 10:32:17;;;;;;;7.53;2.53;;;;;;;-142.57;37.76;115900.28;6282314;22;20018;-85
2023/07/07 10:34:48;;;;;;;7.70;3.03;;;;;;;-142.57;38.22;115900.28;6256234;22;20018;-84
2023/07/07 10:37:20;;;;;;;8.88;3.45;;;;;;;-142.57;38.49;115900.28;6282229;22;20046;-86
2023/07/07 10:39:51;;;;;;;9.00;3.10;;;;;;;-142.57;38.41;115900.28;6284702;22;20015;-88
2023/07/07 10:42:17;;;;;;;7.65;2.90;;;;;;;-142.57;38.83;115900.28;6286146;22;20379;-87
2023/07/07 10:44:43;;;;;;;6.72;2.80;;;;;;;-142.57;37.94;115900.28;6261406;22;20022;-85
2023/07/07 10:47:09;;;;;;;8.88;3.10;;;;;;;-142.57;37.29;115900.28;6283059;22;20474;-83
2023/07/07 10:49:35;;;;;;;6.13;2.25;;;;;;;-142.57;36.90;115900.28;6282494;22;20015;-88
2023/07/07 10:52:36;;;;;;;10.85;2.88;;;;;;;-142.57;37.92;115900.28;6253204;22;20012;-86
2023/07/07 10:55:27;;;;;;;7.38;2.50;;;;;;;-142.57;36.77;115900.28;6200206;22;20059;-84
2023/07/07 10:58:02;;;;;;;5.85;2.00;;;;;;;-142.57;35.80;115900.28;6288136;22;20015;-87
2023/07/07 11:00:47;;;;;;;7.80;2.40;;;;;;;-142.57;34.65;115900.28;6290784;22;20044;-88
2023/07/07 11:03:44;;;;;;;6.40;2.75;;;;;;;-142.57;34.76;115900.28;6291323;22;20008;-90
2023/07/07 11:06:13;;;;;;;9.77;2.60;;;;;;;-142.57;34.26;115900.28;6294499;22;20008;-90
2023/07/07 11:09:15;;;;;;;15.38;2.92;;;;;;;-142.57;35.37;115900.28;6295070;22;20004;-89
2023/07/07 11:12:05;;;;;;;;;;;;;;;-142.57;35.90;115900.28;6267264;22;20012;-91
2023/07/07 11:15:08;;;;;;;10.52;3.13;;;;;;;-142.57;36.83;115900.28;6288825;22;19965;-89
2023/07/07 11:17:59;;;;;;;8.10;2.92;;;;;;;-142.57;36.14;115900.28;6287021;22;20135;-85